This is the latest recevied weather packets stored in our database for station/object KA3RQR. If no packets are shown the sender has not sent any weather packets the latest 10 day(s).
| Time | Temp. | Humidity | Pressure | Rain* | Wind** | Luminosity | Snow |
|---|---|---|---|---|---|---|---|
| 1777495342 | 15° C | 94% | 1008.5 hPa | 0 mm | - | 23 W/m² | - |
| 1777495039 | 15° C | 94% | 1008.7 hPa | 0 mm | - | 36 W/m² | - |
| 1777494736 | 15° C | 93% | 1008.7 hPa | 0 mm | - | 39 W/m² | - |
| 1777494434 | 15° C | 93% | 1008.7 hPa | 0 mm | - | 27 W/m² | - |
| 1777494129 | 15° C | 93% | 1008.9 hPa | 0 mm | - | 29 W/m² | - |
| 1777493827 | 15° C | 93% | 1008.7 hPa | 0 mm | - | 42 W/m² | - |
| 1777493525 | 15° C | 93% | 1008.4 hPa | 0 mm | - | 94 W/m² | - |
| 1777493222 | 15° C | 94% | 1008.9 hPa | 0 mm | - | 68 W/m² | - |
| 1777492918 | 15° C | 94% | 1008.8 hPa | 0 mm | - | 92 W/m² | - |
| 1777492615 | 15° C | 94% | 1009 hPa | 0 mm | - | 74 W/m² | - |
| 1777492310 | 14.44° C | 94% | 1009 hPa | 0 mm | - | 104 W/m² | - |
| 1777492007 | 15° C | 94% | 1009.2 hPa | 0 mm | - | 92 W/m² | - |
| 1777491704 | 14.44° C | 94% | 1009.1 hPa | 0 mm | - | 80 W/m² | - |
| 1777491402 | 14.44° C | 94% | 1009.3 hPa | 0 mm | - | 69 W/m² | - |
| 1777491098 | 14.44° C | 93% | 1009.4 hPa | 0 mm | - | 88 W/m² | - |
| 1777490794 | 14.44° C | 92% | 1009.6 hPa | 0 mm | - | 78 W/m² | - |
| 1777490491 | 15° C | 92% | 1009.7 hPa | 0 mm | - | 81 W/m² | - |
| 1777490187 | 15° C | 92% | 1009.9 hPa | 0 mm | - | 80 W/m² | - |
| 1777489884 | 15° C | 91% | 1009.9 hPa | 0 mm | - | 97 W/m² | - |
| 1777489582 | 15° C | 90% | 1010.2 hPa | 0 mm | - | 99 W/m² | - |
| 1777489278 | 15° C | 90% | 1010.1 hPa | 0 mm | - | 81 W/m² | - |
| 1777488975 | 15° C | 88% | 1010.5 hPa | 0 mm | - | 48 W/m² | - |
| 1777488672 | 15° C | 87% | 1010.8 hPa | 0 mm | - | 69 W/m² | - |
| 1777488370 | 15° C | 87% | 1011 hPa | 0 mm | - | 65 W/m² | - |
| 1777488069 | 15° C | 86% | 1011.2 hPa | 0 mm | - | 98 W/m² | - |
* Rain latest hour (hover to see other rain measurements)
** Current wind speed in m/s (hover to see current wind gust speed)